createdAt,value
2022-11-06T00:01:00.107Z,100650.00
2022-11-06T00:03:28.688Z,100643.00
2022-11-06T00:06:14.947Z,100636.00
2022-11-06T00:08:44.863Z,100642.00
2022-11-06T00:11:14.985Z,100639.00
2022-11-06T00:13:44.716Z,100635.00
2022-11-06T00:16:14.905Z,100638.00
2022-11-06T00:18:44.038Z,100622.00
2022-11-06T00:21:14.766Z,100629.00
2022-11-06T00:23:45.185Z,100637.00
2022-11-06T00:26:17.032Z,100628.00
2022-11-06T00:28:45.972Z,100634.00
2022-11-06T00:31:17.317Z,100639.00
2022-11-06T00:33:46.203Z,100631.00
2022-11-06T00:36:16.830Z,100636.00
2022-11-06T00:38:47.323Z,100631.00
2022-11-06T00:41:17.340Z,100628.00
2022-11-06T00:43:50.618Z,100631.00
2022-11-06T00:46:19.988Z,100633.00
2022-11-06T00:48:50.063Z,100631.00
2022-11-06T00:51:20.397Z,100631.00
2022-11-06T00:53:54.221Z,100632.00
2022-11-06T00:56:23.144Z,100642.00
2022-11-06T00:58:51.666Z,100640.00
2022-11-06T01:01:22.574Z,100644.00
2022-11-06T01:03:55.904Z,100637.00
2022-11-06T01:06:28.792Z,100647.00
2022-11-06T01:09:00.803Z,100639.00
2022-11-06T01:11:46.534Z,100635.00
2022-11-06T01:14:23.397Z,100644.00
2022-11-06T01:16:52.589Z,100640.00
2022-11-06T01:19:22.560Z,100633.00
2022-11-06T01:21:53.905Z,100642.00
2022-11-06T01:24:25.300Z,100633.00
2022-11-06T01:27:24.325Z,100630.00
2022-11-06T01:29:43.016Z,100635.00
2022-11-06T01:32:11.498Z,100626.00
2022-11-06T01:34:41.937Z,100625.00
2022-11-06T01:37:14.480Z,100616.00
2022-11-06T01:39:45.176Z,100615.00
2022-11-06T01:42:16.329Z,100614.00
2022-11-06T01:45:30.718Z,100605.00
2022-11-06T01:48:01.702Z,100598.00
2022-11-06T01:50:30.536Z,100598.00
2022-11-06T01:53:02.430Z,100602.00
2022-11-06T01:55:39.509Z,100595.00
2022-11-06T01:58:11.882Z,100596.00
2022-11-06T02:00:41.509Z,100593.00
2022-11-06T02:03:12.747Z,100591.00
2022-11-06T02:05:42.342Z,100593.00
2022-11-06T02:08:15.055Z,100591.00
2022-11-06T02:10:46.705Z,100591.00
2022-11-06T02:13:22.763Z,100583.00
2022-11-06T02:15:55.758Z,100580.00
2022-11-06T02:18:38.243Z,100582.00
2022-11-06T02:21:32.198Z,100587.00
2022-11-06T02:24:25.510Z,100583.00
2022-11-06T02:27:05.969Z,100581.00
2022-11-06T02:29:39.484Z,100573.00
2022-11-06T02:32:11.860Z,100577.00
2022-11-06T02:34:42.498Z,100574.00
2022-11-06T02:37:16.550Z,100583.00
2022-11-06T02:39:48.135Z,100586.00
2022-11-06T02:42:21.359Z,100576.00
2022-11-06T02:44:53.903Z,100579.00
2022-11-06T02:47:24.499Z,100575.00
2022-11-06T02:49:56.869Z,100570.00
2022-11-06T02:52:29.358Z,100575.00
2022-11-06T02:55:12.495Z,100572.00
2022-11-06T02:57:46.372Z,100572.00
2022-11-06T03:00:17.500Z,100570.00
2022-11-06T03:02:51.410Z,100575.00
2022-11-06T03:05:24.794Z,100564.00
2022-11-06T03:07:58.139Z,100570.00
2022-11-06T03:10:31.781Z,100567.00
2022-11-06T03:13:08.784Z,100570.00
2022-11-06T03:15:44.263Z,100566.00
2022-11-06T03:18:16.485Z,100559.00
2022-11-06T03:20:57.098Z,100557.00
2022-11-06T03:23:33.238Z,100567.00
2022-11-06T03:26:11.802Z,100576.00
2022-11-06T03:28:47.861Z,100561.00
2022-11-06T03:31:21.708Z,100558.00
2022-11-06T03:33:54.486Z,100559.00
2022-11-06T03:36:27.492Z,100558.00
2022-11-06T03:39:00.360Z,100562.00
2022-11-06T03:41:34.368Z,100554.00
2022-11-06T03:44:08.075Z,100551.00
2022-11-06T03:46:39.996Z,100549.00
2022-11-06T03:49:12.139Z,100553.00
2022-11-06T03:51:45.941Z,100558.00
2022-11-06T03:54:18.527Z,100546.00
2022-11-06T03:56:51.904Z,100553.00
2022-11-06T03:59:25.296Z,100554.00
2022-11-06T04:01:58.647Z,100553.00
2022-11-06T04:04:32.122Z,100553.00
2022-11-06T04:07:06.743Z,100546.00
2022-11-06T04:09:56.297Z,100550.00
2022-11-06T04:12:44.341Z,100558.00
2022-11-06T04:15:19.139Z,100551.00
2022-11-06T04:17:47.659Z,100552.00
2022-11-06T04:20:34.850Z,100557.00
2022-11-06T04:23:14.722Z,100557.00
2022-11-06T04:26:15.690Z,100555.00
2022-11-06T04:28:50.365Z,100553.00
2022-11-06T04:31:27.357Z,100551.00
2022-11-06T04:34:02.787Z,100548.00
2022-11-06T04:36:40.999Z,100554.00
2022-11-06T04:39:19.961Z,100551.00
2022-11-06T04:41:54.648Z,100548.00
2022-11-06T04:44:30.892Z,100541.00
2022-11-06T04:47:05.136Z,100544.00
2022-11-06T04:49:36.451Z,100544.00
2022-11-06T04:52:08.901Z,100542.00
2022-11-06T04:54:37.543Z,100553.00
2022-11-06T04:57:06.684Z,100527.00
2022-11-06T04:59:37.324Z,100527.00
2022-11-06T05:02:08.411Z,100530.00
2022-11-06T05:04:36.984Z,100528.00
2022-11-06T05:07:05.517Z,100525.00
2022-11-06T05:09:34.232Z,100513.00
2022-11-06T05:12:02.818Z,100519.00
2022-11-06T05:14:32.619Z,100519.00
2022-11-06T05:17:01.398Z,100517.00
2022-11-06T05:19:31.206Z,100513.00
2022-11-06T05:22:17.012Z,100519.00
2022-11-06T05:24:45.607Z,100513.00
2022-11-06T05:27:14.441Z,100513.00
2022-11-06T05:29:43.201Z,100513.00
2022-11-06T05:32:11.843Z,100520.00
2022-11-06T05:34:42.553Z,100512.00
2022-11-06T05:37:11.568Z,100513.00
2022-11-06T05:39:42.013Z,100514.00
2022-11-06T05:42:11.497Z,100519.00
2022-11-06T05:44:46.176Z,100512.00
2022-11-06T05:47:19.213Z,100514.00
2022-11-06T05:49:50.607Z,100508.00
2022-11-06T05:52:22.484Z,100511.00
2022-11-06T05:54:53.594Z,100505.00
2022-11-06T05:57:29.385Z,100509.00
2022-11-06T06:00:01.604Z,100517.00
2022-11-06T06:02:32.511Z,100515.00
2022-11-06T06:05:09.767Z,100513.00
2022-11-06T06:07:49.275Z,100502.00
2022-11-06T06:10:25.704Z,100515.00
2022-11-06T06:12:55.432Z,100508.00
2022-11-06T06:15:41.203Z,100513.00
2022-11-06T06:18:12.663Z,100517.00
2022-11-06T06:20:46.190Z,100516.00
2022-11-06T06:23:21.027Z,100522.00
2022-11-06T06:25:51.827Z,100509.00
2022-11-06T06:28:21.875Z,100521.00
2022-11-06T06:30:51.054Z,100524.00
2022-11-06T06:33:20.484Z,100518.00
2022-11-06T06:35:55.885Z,100524.00
2022-11-06T06:38:26.044Z,100512.00
2022-11-06T06:40:56.296Z,100525.00
2022-11-06T06:43:26.930Z,100525.00
2022-11-06T06:46:01.145Z,100523.00
2022-11-06T06:48:32.145Z,100534.00
2022-11-06T06:51:03.235Z,100535.00
2022-11-06T06:53:32.206Z,100541.00
2022-11-06T06:56:01.798Z,100541.00
2022-11-06T06:58:31.093Z,100541.00
2022-11-06T07:01:02.215Z,100541.00
2022-11-06T07:03:35.811Z,100545.00
2022-11-06T07:06:12.282Z,100545.00
2022-11-06T07:08:41.158Z,100539.00
2022-11-06T07:11:11.910Z,100544.00
2022-11-06T07:13:41.844Z,100538.00
2022-11-06T07:16:12.509Z,100536.00
2022-11-06T07:18:42.148Z,100543.00
2022-11-06T07:21:14.239Z,100547.00
2022-11-06T07:23:42.927Z,100545.00
2022-11-06T07:26:11.493Z,100546.00
2022-11-06T07:28:39.968Z,100542.00
2022-11-06T07:31:12.391Z,100550.00
2022-11-06T07:33:41.066Z,100553.00
2022-11-06T07:36:13.419Z,100547.00
2022-11-06T07:38:43.450Z,100555.00
2022-11-06T07:41:13.457Z,100565.00
2022-11-06T07:43:42.902Z,100555.00
2022-11-06T07:46:13.511Z,100554.00
2022-11-06T07:48:42.012Z,100554.00
2022-11-06T07:51:12.999Z,100557.00
2022-11-06T07:53:42.318Z,100558.00
2022-11-06T07:56:10.907Z,100549.00
2022-11-06T07:58:39.855Z,100549.00
2022-11-06T08:01:18.208Z,100552.00
2022-11-06T08:03:47.446Z,100541.00
2022-11-06T08:06:17.354Z,100546.00
2022-11-06T08:08:45.884Z,100542.00
2022-11-06T08:11:15.478Z,100540.00
2022-11-06T08:13:44.213Z,100540.00
2022-11-06T08:16:14.570Z,100538.00
2022-11-06T08:18:43.535Z,100537.00
2022-11-06T08:21:16.625Z,100534.00
2022-11-06T08:23:54.751Z,100528.00
2022-11-06T08:26:24.300Z,100526.00
2022-11-06T08:29:00.625Z,100528.00
2022-11-06T08:31:35.255Z,100522.00
2022-11-06T08:34:04.861Z,100532.00
2022-11-06T08:36:37.021Z,100525.00
2022-11-06T08:39:22.917Z,100520.00
2022-11-06T08:42:04.842Z,100527.00
2022-11-06T08:44:37.250Z,100515.00
2022-11-06T08:47:08.041Z,100524.00
2022-11-06T08:49:43.870Z,100516.00
2022-11-06T08:52:15.365Z,100524.00
2022-11-06T08:54:49.902Z,100518.00
2022-11-06T08:57:32.006Z,100516.00
2022-11-06T09:00:00.952Z,100516.00
2022-11-06T09:02:29.976Z,100502.00
2022-11-06T09:05:02.196Z,100513.00
2022-11-06T09:07:33.777Z,100503.00
2022-11-06T09:10:07.260Z,100500.00
2022-11-06T09:12:38.766Z,100490.00
2022-11-06T09:15:08.173Z,100495.00
2022-11-06T09:17:42.957Z,100486.00
2022-11-06T09:20:12.390Z,100498.00
2022-11-06T09:22:41.121Z,100497.00
2022-11-06T09:25:12.024Z,100494.00
2022-11-06T09:27:45.535Z,100492.00
2022-11-06T09:30:16.286Z,100489.00
2022-11-06T09:32:49.521Z,100503.00
2022-11-06T09:35:18.893Z,100495.00
2022-11-06T09:37:47.765Z,100496.00
2022-11-06T09:40:26.416Z,100491.00
2022-11-06T09:43:05.073Z,100488.00
2022-11-06T09:45:36.766Z,100485.00
2022-11-06T09:48:14.815Z,100487.00
2022-11-06T09:50:52.749Z,100479.00
2022-11-06T09:53:34.036Z,100479.00
2022-11-06T09:56:06.772Z,100464.00
2022-11-06T09:58:44.280Z,100469.00
2022-11-06T10:01:24.501Z,100464.00
2022-11-06T10:03:58.185Z,100467.00
2022-11-06T10:06:28.676Z,100456.00
2022-11-06T10:09:01.316Z,100451.00
2022-11-06T10:11:53.200Z,100450.00
2022-11-06T10:14:32.632Z,100437.00
2022-11-06T10:17:12.172Z,100439.00
2022-11-06T10:19:46.142Z,100436.00
2022-11-06T10:22:18.356Z,100440.00
2022-11-06T10:24:51.457Z,100428.00
2022-11-06T10:27:28.738Z,100426.00
2022-11-06T10:30:11.940Z,100423.00
2022-11-06T10:33:07.838Z,100424.00
2022-11-06T10:35:41.347Z,100422.00
2022-11-06T10:38:15.160Z,100413.00
2022-11-06T10:40:49.542Z,100411.00
2022-11-06T10:43:28.640Z,100420.00
2022-11-06T10:46:05.746Z,100406.00
2022-11-06T10:48:41.563Z,100411.00
2022-11-06T10:51:37.715Z,100410.00
2022-11-06T10:54:19.532Z,100407.00
2022-11-06T10:57:02.836Z,100399.00
2022-11-06T10:59:33.627Z,100390.00
2022-11-06T11:02:03.572Z,100398.00
2022-11-06T11:04:33.484Z,100392.00
2022-11-06T11:07:18.751Z,100383.00
2022-11-06T11:09:51.064Z,100379.00
2022-11-06T11:12:40.762Z,100366.00
2022-11-06T11:15:20.024Z,100364.00
2022-11-06T11:18:18.102Z,100356.00
2022-11-06T11:20:48.137Z,100353.00
2022-11-06T11:23:19.429Z,100359.00
2022-11-06T11:25:51.957Z,100359.00
2022-11-06T11:28:33.213Z,100352.00
2022-11-06T11:31:12.413Z,100352.00
2022-11-06T11:33:42.549Z,100345.00
2022-11-06T11:36:12.571Z,100351.00
2022-11-06T11:38:43.398Z,100344.00
2022-11-06T11:41:15.391Z,100331.00
2022-11-06T11:43:44.618Z,100317.00
2022-11-06T11:46:22.220Z,100312.00
2022-11-06T11:48:52.638Z,100313.00
2022-11-06T11:51:32.685Z,100307.00
2022-11-06T11:54:07.506Z,100306.00
2022-11-06T11:57:04.180Z,100299.00
2022-11-06T11:59:38.421Z,100295.00
2022-11-06T12:02:23.640Z,100290.00
2022-11-06T12:05:02.054Z,100297.00
2022-11-06T12:07:33.204Z,100295.00
2022-11-06T12:10:02.922Z,100297.00
2022-11-06T12:12:36.570Z,100285.00
2022-11-06T12:15:18.926Z,100278.00
2022-11-06T12:17:53.850Z,100278.00
2022-11-06T12:20:28.253Z,100276.00
2022-11-06T12:22:59.475Z,100272.00
2022-11-06T12:25:34.032Z,100268.00
2022-11-06T12:28:06.511Z,100279.00
2022-11-06T12:30:37.029Z,100270.00
2022-11-06T12:33:15.759Z,100267.00
2022-11-06T12:35:52.024Z,100274.00
2022-11-06T12:38:30.497Z,100268.00
2022-11-06T12:41:10.590Z,100261.00
2022-11-06T12:43:43.433Z,100257.00
2022-11-06T12:46:38.524Z,100254.00
2022-11-06T12:49:43.564Z,100236.00
2022-11-06T12:52:28.206Z,100235.00
2022-11-06T12:55:16.514Z,100245.00
2022-11-06T12:58:03.934Z,100235.00
2022-11-06T13:00:41.807Z,100247.00
2022-11-06T13:03:38.145Z,100234.00
2022-11-06T13:09:53.611Z,100227.00
2022-11-06T13:12:32.453Z,100227.00
2022-11-06T13:15:12.778Z,100219.00
2022-11-06T13:17:48.164Z,100202.00
2022-11-06T13:20:25.010Z,100211.00
2022-11-06T13:23:02.109Z,100206.00
2022-11-06T13:25:44.135Z,100208.00
2022-11-06T13:28:29.685Z,100202.00
2022-11-06T13:31:04.257Z,100204.00
2022-11-06T13:33:44.758Z,100202.00
2022-11-06T13:36:15.203Z,100219.00
2022-11-06T13:38:52.720Z,100206.00
2022-11-06T13:41:28.176Z,100197.00
2022-11-06T13:44:04.107Z,100192.00
2022-11-06T13:46:41.032Z,100191.00
2022-11-06T13:49:20.218Z,100174.00
2022-11-06T13:51:54.430Z,100180.00
2022-11-06T13:54:40.526Z,100180.00
2022-11-06T13:57:39.021Z,100181.00
2022-11-06T14:00:18.884Z,100177.00
2022-11-06T14:03:20.975Z,100171.00
2022-11-06T14:05:59.714Z,100163.00
2022-11-06T14:08:31.615Z,100156.00
2022-11-06T14:11:04.533Z,100154.00
2022-11-06T14:13:36.811Z,100145.00
2022-11-06T14:16:22.599Z,100137.00
2022-11-06T14:18:56.984Z,100148.00
2022-11-06T14:21:44.829Z,100142.00
2022-11-06T14:24:28.823Z,100142.00
2022-11-06T14:27:09.550Z,100137.00
2022-11-06T14:29:59.206Z,100134.00
2022-11-06T14:32:43.339Z,100139.00
2022-11-06T14:35:51.878Z,100142.00
2022-11-06T14:38:38.099Z,100131.00
2022-11-06T14:41:49.090Z,100124.00
2022-11-06T14:44:41.644Z,100123.00
2022-11-06T14:47:35.056Z,100110.00
2022-11-06T14:50:26.093Z,100110.00
2022-11-06T14:52:57.856Z,100107.00
2022-11-06T14:55:30.940Z,100101.00
2022-11-06T15:01:01.616Z,100104.00
2022-11-06T15:03:36.759Z,100098.00
2022-11-06T15:06:21.348Z,100089.00
2022-11-06T15:09:02.378Z,100096.00
2022-11-06T15:11:51.147Z,100092.00
2022-11-06T15:14:57.925Z,100093.00
2022-11-06T15:17:30.321Z,100101.00
2022-11-06T15:20:24.534Z,100101.00
2022-11-06T15:23:08.850Z,100096.00
2022-11-06T15:25:46.710Z,100084.00
2022-11-06T15:28:18.725Z,100096.00
2022-11-06T15:30:51.578Z,100090.00
2022-11-06T15:33:26.988Z,100098.00
2022-11-06T15:36:00.321Z,100097.00
2022-11-06T15:38:39.214Z,100096.00
2022-11-06T15:41:13.126Z,100097.00
2022-11-06T15:43:44.598Z,100088.00
2022-11-06T15:46:22.735Z,100088.00
2022-11-06T15:49:08.211Z,100088.00
2022-11-06T15:51:40.966Z,100089.00
2022-11-06T15:54:14.900Z,100080.00
2022-11-06T15:56:44.522Z,100070.00
2022-11-06T15:59:14.949Z,100073.00
2022-11-06T16:01:47.690Z,100075.00
2022-11-06T16:04:20.088Z,100067.00
2022-11-06T16:06:51.069Z,100075.00
2022-11-06T16:09:22.683Z,100076.00
2022-11-06T16:11:53.785Z,100083.00
2022-11-06T16:14:23.256Z,100082.00
2022-11-06T16:16:53.135Z,100083.00
2022-11-06T16:19:34.426Z,100087.00
2022-11-06T16:22:07.565Z,100073.00
2022-11-06T16:24:44.165Z,100060.00
2022-11-06T16:27:14.750Z,100061.00
2022-11-06T16:29:48.907Z,100070.00
2022-11-06T16:32:20.478Z,100082.00
2022-11-06T16:34:49.627Z,100066.00
2022-11-06T16:37:38.858Z,100073.00
2022-11-06T16:40:48.644Z,100076.00
2022-11-06T16:43:18.839Z,100073.00
2022-11-06T16:45:55.945Z,100062.00
2022-11-06T16:48:36.303Z,100058.00
2022-11-06T16:51:08.082Z,100048.00
2022-11-06T16:53:57.852Z,100044.00
2022-11-06T16:56:29.076Z,100043.00
2022-11-06T16:59:02.183Z,100039.00
2022-11-06T17:01:37.836Z,100047.00
2022-11-06T17:04:06.761Z,100047.00
2022-11-06T17:06:37.970Z,100039.00
2022-11-06T17:09:25.324Z,100036.00
2022-11-06T17:11:54.022Z,100046.00
2022-11-06T17:14:24.001Z,100036.00
2022-11-06T17:16:54.911Z,100042.00
2022-11-06T17:19:23.850Z,100037.00
2022-11-06T17:21:52.919Z,100040.00
2022-11-06T17:24:38.406Z,100038.00
2022-11-06T17:27:07.828Z,100043.00
2022-11-06T17:29:37.023Z,100039.00
2022-11-06T17:32:05.643Z,100040.00
2022-11-06T17:34:34.157Z,100043.00
2022-11-06T17:37:02.769Z,100050.00
2022-11-06T17:39:32.801Z,100039.00
2022-11-06T17:42:01.376Z,100042.00
2022-11-06T17:44:29.871Z,100040.00
2022-11-06T17:46:58.441Z,100034.00
2022-11-06T17:49:26.970Z,100045.00
2022-11-06T17:51:59.636Z,100030.00
2022-11-06T17:54:30.411Z,100032.00
2022-11-06T17:57:02.026Z,100025.00
2022-11-06T17:59:30.952Z,100025.00
2022-11-06T18:02:00.010Z,100027.00
2022-11-06T18:04:31.326Z,100023.00
2022-11-06T18:06:59.836Z,100021.00
2022-11-06T18:09:28.605Z,100023.00
2022-11-06T18:12:01.054Z,100026.00
2022-11-06T18:14:29.857Z,100026.00
2022-11-06T18:16:58.342Z,100023.00
2022-11-06T18:19:27.310Z,100007.00
2022-11-06T18:21:56.437Z,100006.00
2022-11-06T18:24:25.196Z,99999.00
2022-11-06T18:26:54.059Z,100003.00
2022-11-06T18:29:24.164Z,99990.00
2022-11-06T18:31:52.624Z,99988.00
2022-11-06T18:34:21.442Z,99989.00
2022-11-06T18:36:51.132Z,99992.00
2022-11-06T18:39:20.343Z,99990.00
2022-11-06T18:41:48.915Z,99976.00
2022-11-06T18:44:18.333Z,99992.00
2022-11-06T18:46:48.457Z,99987.00
2022-11-06T18:49:17.270Z,99987.00
2022-11-06T18:51:45.926Z,99983.00
2022-11-06T18:54:14.650Z,99977.00
2022-11-06T18:56:43.256Z,99979.00
2022-11-06T18:59:16.785Z,99978.00
2022-11-06T19:01:45.491Z,99976.00
2022-11-06T19:04:15.567Z,99969.00
2022-11-06T19:06:44.127Z,99968.00
2022-11-06T19:09:12.691Z,99971.00
2022-11-06T19:11:41.269Z,99981.00
2022-11-06T19:14:09.725Z,99969.00
2022-11-06T19:16:38.377Z,99976.00
2022-11-06T19:19:08.384Z,99979.00
2022-11-06T19:21:40.417Z,99981.00
2022-11-06T19:24:19.609Z,99980.00
2022-11-06T19:26:51.633Z,99972.00
2022-11-06T19:29:20.255Z,99972.00
2022-11-06T19:31:48.781Z,99975.00
2022-11-06T19:34:17.726Z,99977.00
2022-11-06T19:36:47.748Z,99979.00
2022-11-06T19:39:16.489Z,99970.00
2022-11-06T19:41:45.075Z,99962.00
2022-11-06T19:44:13.695Z,99969.00
2022-11-06T19:46:42.569Z,99967.00
2022-11-06T19:49:11.732Z,99968.00
2022-11-06T19:51:41.067Z,99972.00
2022-11-06T19:54:11.193Z,99967.00
2022-11-06T19:57:29.286Z,99979.00
2022-11-06T19:59:28.217Z,99972.00
2022-11-06T20:01:56.894Z,99969.00
2022-11-06T20:04:25.438Z,99977.00
2022-11-06T20:06:53.911Z,99970.00
2022-11-06T20:09:23.751Z,99979.00
2022-11-06T20:11:53.141Z,99988.00
2022-11-06T20:14:22.066Z,99981.00
2022-11-06T20:16:50.682Z,99975.00
2022-11-06T20:19:19.347Z,99974.00
2022-11-06T20:21:47.840Z,99970.00
2022-11-06T20:24:16.363Z,99964.00
2022-11-06T20:26:46.325Z,99973.00
2022-11-06T20:29:15.071Z,99960.00
2022-11-06T20:31:43.880Z,99958.00
2022-11-06T20:34:12.455Z,99962.00
2022-11-06T20:36:40.912Z,99963.00
2022-11-06T20:39:09.658Z,99959.00
2022-11-06T20:41:38.126Z,99963.00
2022-11-06T20:44:07.990Z,99953.00
2022-11-06T20:46:36.562Z,99958.00
2022-11-06T20:49:05.130Z,99960.00
2022-11-06T20:51:42.982Z,99944.00
2022-11-06T20:54:22.130Z,99959.00
2022-11-06T20:56:51.037Z,99960.00
2022-11-06T20:59:21.056Z,99956.00
2022-11-06T21:01:49.588Z,99946.00
2022-11-06T21:04:18.754Z,99935.00
2022-11-06T21:06:47.219Z,99943.00
2022-11-06T21:09:16.668Z,99939.00
2022-11-06T21:11:45.202Z,99949.00
2022-11-06T21:14:13.659Z,99938.00
2022-11-06T21:16:43.556Z,99938.00
2022-11-06T21:19:12.220Z,99932.00
2022-11-06T21:21:40.929Z,99938.00
2022-11-06T21:24:10.100Z,99933.00
2022-11-06T21:26:39.486Z,99932.00
2022-11-06T21:29:10.596Z,99928.00
2022-11-06T21:31:45.711Z,99933.00
2022-11-06T21:34:20.046Z,99923.00
2022-11-06T21:36:48.811Z,99925.00
2022-11-06T21:39:20.251Z,99921.00
2022-11-06T21:41:49.190Z,99923.00
2022-11-06T21:44:26.127Z,99928.00
2022-11-06T21:46:54.824Z,99915.00
2022-11-06T21:49:24.968Z,99902.00
2022-11-06T21:51:54.245Z,99901.00
2022-11-06T21:54:40.794Z,99892.00
2022-11-06T21:57:09.577Z,99894.00
2022-11-06T21:59:41.659Z,99892.00
2022-11-06T22:02:11.610Z,99884.00
2022-11-06T22:04:41.944Z,99877.00
2022-11-06T22:07:10.927Z,99864.00
2022-11-06T22:09:39.871Z,99851.00
2022-11-06T22:14:52.429Z,99854.00
2022-11-06T22:17:21.539Z,99834.00
2022-11-06T22:19:52.182Z,99835.00
2022-11-06T22:22:20.887Z,99831.00
2022-11-06T22:24:49.998Z,99800.00
2022-11-06T22:27:18.896Z,99806.00
2022-11-06T22:29:49.980Z,99818.00
2022-11-06T22:32:18.850Z,99834.00
2022-11-06T22:34:48.003Z,99844.00
2022-11-06T22:37:18.218Z,99831.00
2022-11-06T22:39:49.657Z,99839.00
2022-11-06T22:42:18.492Z,99833.00
2022-11-06T22:44:48.462Z,99837.00
2022-11-06T22:47:19.903Z,99842.00
2022-11-06T22:49:48.798Z,99836.00
2022-11-06T22:52:21.394Z,99834.00
2022-11-06T22:54:50.085Z,99850.00
2022-11-06T22:58:13.193Z,99852.00
2022-11-06T23:00:41.871Z,99856.00
2022-11-06T23:03:10.566Z,99863.00
2022-11-06T23:05:41.993Z,99869.00
2022-11-06T23:08:12.188Z,99862.00
2022-11-06T23:10:42.348Z,99869.00
2022-11-06T23:13:11.581Z,99873.00
2022-11-06T23:15:40.272Z,99873.00
2022-11-06T23:18:08.917Z,99876.00
2022-11-06T23:20:37.473Z,99888.00
2022-11-06T23:23:06.382Z,99883.00
2022-11-06T23:25:36.546Z,99893.00
2022-11-06T23:28:08.309Z,99891.00
2022-11-06T23:30:36.771Z,99893.00
2022-11-06T23:33:07.331Z,99880.00
2022-11-06T23:35:36.124Z,99885.00
2022-11-06T23:38:04.850Z,99895.00
2022-11-06T23:40:33.417Z,99898.00
2022-11-06T23:43:04.104Z,99889.00
2022-11-06T23:45:49.663Z,99888.00
2022-11-06T23:48:18.666Z,99892.00
2022-11-06T23:50:47.901Z,99893.00
2022-11-06T23:53:17.811Z,99892.00
2022-11-06T23:55:47.083Z,99882.00
2022-11-06T23:58:17.352Z,99890.00
